Tiempo atmosférico en la estación meteorológica de Haría, Las Palmas (277 m.)



Fecha
DESCASC
Temp. máxima en grados centígrados (hora)
DESCASC
Temp. mínima en grados centígrados (hora)
DESCASC
Temp. media en grados centígrados
DESCASC
Racha de viento máxima en m/sg (hora)
DESCASC
Velocidad máxima media en intervalos de 10 minutos(hora)
DESCASC
Precipitaciones diarias en mm
DESCASC
Precipitaciones de 00:00 a 06:00 en mm
DESCASC
Precipitaciones de 06:00 a 12:00 en mm
DESCASC
Precipitaciones de 12:00 a 18:00 en mm
DESCASC
Precipitaciones de 18:00 a 24:00 en mm
DESCASC
02-08-2020 26.9 (17:10) 20.4 (01:40) 23.6 17.5 (21:50) 10.28 (15:40) 0 0 0 0 0
01-08-2020 29 (16:20) 19.8 (02:10) 24.4 12.22 (19:20) 8.06 (19:10) 0 0 0 0 0
31-07-2020 25.3 (15:10) 18.8 (05:20) 22 10.28 (16:10) 7.5 (03:10) 0 0 0 0 0
30-07-2020 24.7 (15:40) 18.9 (00:00) 21.8 10.83 (14:10) 7.78 (14:30) 0 0 0 0 0
29-07-2020 24.6 (15:30) 19.4 (00:00) 22 13.61 (13:20) 9.72 (13:30) 0 0 0 0 0
28-07-2020 23.4 (16:50) 19 (00:00) 21.2 13.33 (18:30) 9.72 (18:30) 0 0 0 0 0
27-07-2020 26.7 (16:20) 18.6 (00:00) 22.7 12.22 (19:30) 8.33 (18:10) 0 0 0 0 0
26-07-2020 24 (15:10) 19.3 (00:00) 21.6 12.78 (06:20) 8.61 (19:00) 0 0 0 0 0
25-07-2020 24.5 (14:40) 19.2 (00:00) 21.9 13.61 (18:30) 9.72 (18:30) 0 0 0 0 0
24-07-2020 26 (15:10) 18.8 (00:00) 22.4 13.33 (21:20) 9.72 (21:20) 0 0 0 0 0
23-07-2020 24.1 (15:50) 18.8 (00:00) 21.4 13.06 (11:00) 9.44 (03:30) 0 0 0 0 0
22-07-2020 24.7 (14:50) 19.4 (00:00) 22.1 12.78 (17:50) 8.33 (18:00) 0 0 0 0 0
21-07-2020 25.4 (15:20) 19 (00:00) 22.2 12.5 (11:20) 8.61 (09:40) 0 0 0 0 0
20-07-2020 25.1 (00:00) 19.6 (00:00) 22.4 15.56 (16:40) 11.39 (16:40) 0 0 0 0 0
19-07-2020 32.5 (13:10) 24.7 (00:00) 28.6 17.22 (22:50) 11.11 (22:30) 0 0 0 0 0
18-07-2020 32.4 (17:20) 22.6 (00:00) 27.5 12.22 (21:10) 7.22 (18:50) 0 0 0 0 0
17-07-2020 32.1 (13:20) 19.3 (00:00) 25.7 14.72 (17:50) 9.17 (17:50) 0 0 0 0 0
16-07-2020 27 (14:00) 18.4 (00:00) 22.7 13.89 (18:10) 11.11 (18:30) 0 0 0 0 0
15-07-2020 24.1 (14:30) 19.4 (00:00) 21.8 18.33 (01:50) 10.83 (01:00) 0 0 0 0 0
14-07-2020 25.8 (14:00) 18.5 (00:00) 22.1 17.5 (20:30) 11.39 (23:20) 0 0 0 0 0
13-07-2020 24.2 (12:30) 18.4 (00:00) 21.3 13.61 (18:20) 10.83 (18:20) 0 0 0 0 0
12-07-2020 25.2 (14:30) 19 (23:20) 22.1 11.67 (18:40) 8.06 (18:40) 0 0 0 0 0
11-07-2020 24.5 (16:20) 18.5 (01:30) 21.5 13.89 (01:40) 9.17 (19:20) 0 0 0 0 0
10-07-2020 24.2 (13:40) 18.6 (00:00) 21.4 13.89 (14:50) 10 (17:40) 0 0 0 0 0
09-07-2020 24.5 (16:00) 18.4 (07:10) 21.4 13.89 (17:50) 10.28 (18:10) 0 0 0 0 0
08-07-2020 29.5 (11:30) 21.7 (23:59) 25.6 13.33 (15:40) 8.33 (08:10) 0 0 0 0 0

Gráficas

Temp. máximas Temp. mínimas Temp. medias Precipitaciones Rachas de viento máximas Velocidades máximas media en intervalos de 10 minutos

Datos horarios

Fecha y hora oficial Temperatura (ºC) Velocidad del viento (km/h) Dirección del viento Racha (km/h) Dirección de racha Precipitación (mm) Presión (hPa) Tendencia (hPa) Humedad (%)
2020-08-06 23:00:00 20.2 17 Noroeste 37 Noroeste 0 -- -- 82
2020-08-06 22:00:00 20.3 24 Noroeste 39 Noroeste 0 -- -- 82
2020-08-06 21:00:00 20.2 23 Noroeste 42 Noroeste 0 -- -- 82
2020-08-06 20:00:00 20.4 23 Noroeste 40 Noroeste 0 -- -- 82
2020-08-06 19:00:00 20.6 31 Noroeste 48 Noroeste 0 -- -- 84
2020-08-06 18:00:00 21.4 32 Noroeste 51 Noroeste 0 -- -- 79
2020-08-06 17:00:00 23 21 Noroeste 38 Noroeste 0 -- -- 75
2020-08-06 16:00:00 22.9 19 Noroeste 33 Noroeste 0 -- -- 74
2020-08-06 15:00:00 22.2 18 Noroeste 28 Noroeste 0 -- -- 77
2020-08-06 14:00:00 22.2 19 Noroeste 27 Noroeste 0 -- -- 77
2020-08-06 13:00:00 21.6 16 Noroeste 29 Noroeste 0 -- -- 79
2020-08-06 12:00:00 21.5 20 Noroeste 31 Noroeste 0 -- -- 77
2020-08-06 11:00:00 21.3 18 Noroeste 30 Noroeste 0 -- -- 76
2020-08-06 10:00:00 20.5 20 Noroeste 34 Norte 0 -- -- 77
2020-08-06 09:00:00 20 17 Noroeste 30 Norte 0 -- -- 80
2020-08-06 08:00:00 19.6 19 Noroeste 30 Noroeste 0 -- -- 82
2020-08-06 07:00:00 19.5 14 Noroeste 31 Noroeste 0 -- -- 82
2020-08-06 06:00:00 19.6 16 Noroeste 31 Noroeste 0 -- -- 82
2020-08-06 05:00:00 19.6 21 Noroeste 37 Noroeste 0 -- -- 80
2020-08-06 04:00:00 19.6 25 Noroeste 35 Noroeste 0 -- -- 82
2020-08-06 03:00:00 19.7 20 Noroeste 33 Noroeste 0 -- -- 82
2020-08-06 02:00:00 19.7 23 Noroeste 36 Noroeste 0 -- -- 81
2020-08-06 01:00:00 19.8 23 Noroeste 35 Noroeste 0 -- -- 84
2020-08-06 00:00:00 20.1 23 Noroeste 38 Noroeste 0 -- -- 84
2020-08-05 23:00:00 20.3 24 Noroeste 39 Noroeste 0 -- -- 83
2020-08-05 22:00:00 20.2 27 Noroeste 41 Noroeste 0 -- -- 81
2020-08-05 21:00:00 20.2 28 Noroeste 41 Noroeste 0 -- -- 81
2020-08-05 20:00:00 20.5 21 Noroeste 40 Noroeste 0 -- -- 82
2020-08-05 19:00:00 21.2 24 Noroeste 42 Noroeste 0 -- -- 76
2020-08-05 18:00:00 21.7 29 Noroeste 45 Noroeste 0 -- -- 74
2020-08-05 17:00:00 22.9 27 Noroeste 42 Noroeste 0 -- -- 68
2020-08-05 16:00:00 24.1 26 Noroeste 40 Noroeste 0 -- -- 64
2020-08-05 15:00:00 23.2 26 Noroeste 41 Noroeste 0 -- -- 70
2020-08-05 14:00:00 23.7 25 Noroeste 36 Noroeste 0 -- -- 70
2020-08-05 13:00:00 22.5 20 Norte 32 Noroeste 0 -- -- 74
2020-08-05 12:00:00 21.6 21 Noroeste 39 Norte 0 -- -- 78
2020-08-05 11:00:00 21.4 19 Norte 38 Noroeste 0 -- -- 77
2020-08-05 10:00:00 20.7 19 Norte 33 Noroeste 0 -- -- 79
2020-08-05 09:00:00 19.8 18 Norte 35 Norte 0 -- -- 84
2020-08-05 08:00:00 19.2 16 Norte 34 Noroeste 0 -- -- 85
2020-08-05 07:00:00 19.1 23 Norte 40 Norte 0 -- -- 85
2020-08-05 06:00:00 19.1 25 Norte 45 Norte 0 -- -- 84
2020-08-05 05:00:00 19.3 22 Norte 34 Norte 0 -- -- 85
2020-08-05 04:00:00 19.5 17 Norte 38 Norte 0 -- -- 86
2020-08-05 03:00:00 19.6 19 Norte 33 Noroeste 0 -- -- 86
2020-08-05 02:00:00 19.6 22 Norte 40 Noroeste 0 -- -- 88
2020-08-05 01:00:00 19.8 23 Noroeste 43 Norte 0 -- -- 89
2020-08-05 00:00:00 19.7 28 Noroeste 41 Noroeste 0 -- -- 88
2020-08-04 23:00:00 19.7 26 Noroeste 39 Norte 0 -- -- 88
2020-08-04 22:00:00 20 27 Norte 38 Noroeste 0 -- -- 86
2020-08-04 21:00:00 20.2 20 Norte 40 Norte 0 -- -- 85
2020-08-04 20:00:00 20.8 23 Norte 43 Noroeste 0 -- -- 83
2020-08-04 19:00:00 22.1 30 Noroeste 49 Noroeste 0 -- -- 77
2020-08-04 18:00:00 22.9 32 Noroeste 50 Noroeste 0 -- -- 75
2020-08-04 17:00:00 24.2 30 Noroeste 50 Noroeste 0 -- -- 72
2020-08-04 16:00:00 24 33 Noroeste 50 Noroeste 0 -- -- 72
2020-08-04 15:00:00 24.2 37 Noroeste 54 Noroeste 0 -- -- 70
2020-08-04 14:00:00 24.6 31 Noroeste 54 Noroeste 0 -- -- 69
2020-08-04 13:00:00 24.2 32 Noroeste 47 Noroeste 0 -- -- 70
2020-08-04 12:00:00 23.8 32 Noroeste 50 Noroeste 0 -- -- 73
2020-08-04 11:00:00 22.9 29 Norte 40 Norte 0 -- -- 77
2020-08-04 10:00:00 21.3 24 Norte 38 Norte 0 -- -- 85
2020-08-04 09:00:00 20.6 26 Norte 38 Norte 0 -- -- 88
2020-08-04 08:00:00 20.2 22 Norte 48 Noroeste 0 -- -- 90
2020-08-04 07:00:00 19.9 35 Norte 52 Norte 0 -- -- 91
2020-08-04 06:00:00 20 26 Norte 47 Norte 0 -- -- 91
2020-08-04 05:00:00 19.9 24 Norte 51 Norte 0 -- -- 91
2020-08-04 04:00:00 19.8 27 Norte 53 Norte 0 -- -- 90
2020-08-04 03:00:00 19.9 28 Norte 42 Norte 0 -- -- 88
2020-08-04 02:00:00 19.9 32 Noroeste 53 Noroeste 0 -- -- 88
2020-08-04 01:00:00 19.9 33 Noroeste 50 Noroeste 0 -- -- 86
2020-08-04 00:00:00 20 33 Noroeste 49 Noroeste 0 -- -- 85
2020-08-03 23:00:00 20.4 30 Noroeste 45 Noroeste 0 -- -- 82
2020-08-03 22:00:00 20.8 29 Noroeste 50 Noroeste 0 -- -- 77
2020-08-03 21:00:00 21.2 32 Noroeste 45 Noroeste 0 -- -- 73
2020-08-03 20:00:00 21.6 32 Noroeste 50 Noroeste 0 -- -- 75
2020-08-03 19:00:00 22.6 31 Noroeste 47 Noroeste 0 -- -- 75
2020-08-03 18:00:00 24.6 27 Noroeste 48 Noroeste 0 -- -- 63
2020-08-03 17:00:00 25.1 25 Norte 43 Norte 0 -- -- 55
2020-08-03 16:00:00 24.4 30 Norte 48 Norte 0 -- -- 66
2020-08-03 15:00:00 25.3 30 Norte 45 Norte 0 -- -- 59
2020-08-03 14:00:00 25 27 Norte 49 Norte 0 -- -- 60
2020-08-03 13:00:00 24.2 32 Norte 50 Norte 0 -- -- 68
2020-08-03 12:00:00 23.5 33 Noroeste 51 Noroeste 0 -- -- 72
2020-08-03 11:00:00 23 31 Norte 51 Noroeste 0 -- -- 72
2020-08-03 10:00:00 21.4 39 Noroeste 57 Noroeste 0 -- -- 81
2020-08-03 09:00:00 21.3 36 Noroeste 61 Noroeste 0 -- -- 78
2020-08-03 08:00:00 21.7 37 Noroeste 58 Noroeste 0 -- -- 74
2020-08-03 07:00:00 21.5 34 Noroeste 53 Noroeste 0 -- -- 72
2020-08-03 06:00:00 21.6 27 Noroeste 49 Noroeste 0 -- -- 73
2020-08-03 05:00:00 22.3 29 Noroeste 60 Norte 0 -- -- 66
2020-08-03 04:00:00 22.5 30 Noroeste 53 Norte 0 -- -- 60
2020-08-03 03:00:00 21.7 26 Noroeste 53 Noroeste 0 -- -- 72
2020-08-03 02:00:00 22.3 28 Noroeste 53 Norte 0 -- -- 67
2020-08-03 01:00:00 23.2 29 Noroeste 61 Norte 0 -- -- 60
2020-08-03 00:00:00 24.6 34 Norte 55 Norte 0 -- -- 46
2020-08-02 23:00:00 23 21 Noroeste 49 Noroeste 0 -- -- 62
2020-08-02 22:00:00 24.4 32 Norte 63 Norte 0 -- -- 47
2020-08-02 21:00:00 24.5 36 Norte 55 Norte 0 -- -- 41
2020-08-02 20:00:00 23.9 21 Noroeste 36 Norte 0 -- -- 65
2020-08-02 19:00:00 24.9 22 Noroeste 50 Norte 0 -- -- 64
2020-08-02 18:00:00 25.3 27 Norte 48 Norte 0 -- -- 61
2020-08-02 17:00:00 26.7 21 Norte 45 Norte 0 -- -- 63
2020-08-02 16:00:00 26.3 32 Norte 52 Norte 0 -- -- 62
2020-08-02 15:00:00 25.9 27 Norte 44 Norte 0 -- -- 68
2020-08-02 14:00:00 25.3 27 Norte 44 Norte 0 -- -- 69
2020-08-02 13:00:00 25.9 30 Norte 46 Norte 0 -- -- 67
2020-08-02 12:00:00 26.3 26 Norte 50 Norte 0 -- -- 65
2020-08-02 11:00:00 25 19 Norte 38 Norte 0 -- -- 70
2020-08-02 10:00:00 23 21 Noroeste 36 Noroeste 0 -- -- 78
2020-08-02 09:00:00 22.1 26 Noroeste 39 Noroeste 0 -- -- 85
2020-08-02 08:00:00 21.3 27 Noroeste 39 Noroeste 0 -- -- 87
2020-08-02 07:00:00 21.3 25 Noroeste 38 Oeste 0 -- -- 81
2020-08-02 06:00:00 21.7 23 Noroeste 36 Noroeste 0 -- -- 74
2020-08-02 05:00:00 21.7 22 Noroeste 35 Noroeste 0 -- -- 71
2020-08-02 04:00:00 20.9 19 Noroeste 28 Noroeste 0 -- -- 84
2020-08-02 03:00:00 20.5 12 Noroeste 24 Norte 0 -- -- 89
2020-08-02 02:00:00 20.4 13 Noroeste 27 Norte 0 -- -- 91
2020-08-02 01:00:00 20.6 18 Norte 30 Norte 0 -- -- 91
2020-08-02 00:00:00 20.7 17 Norte 31 Norte 0 -- -- 91
2020-08-01 23:00:00 20.7 17 Norte 37 Norte 0 -- -- 91
2020-08-01 22:00:00 20.9 26 Noroeste 41 Noroeste 0 -- -- 90
2020-08-01 21:00:00 21.3 27 Noroeste 39 Noroeste 0 -- -- 86
2020-08-01 20:00:00 22.1 29 Noroeste 44 Oeste 0 -- -- 80
2020-08-01 19:00:00 24.2 27 Oeste 37 Oeste 0 -- -- 69
2020-08-01 18:00:00 27.3 17 Oeste 29 Noroeste 0 -- -- 53
2020-08-01 17:00:00 28.2 18 Noroeste 28 Noroeste 0 -- -- 41
2020-08-01 16:00:00 28.4 18 Nordeste 30 Nordeste 0 -- -- 35
2020-08-01 15:00:00 26.2 20 Norte 31 Nordeste 0 -- -- 60
2020-08-01 14:00:00 24.6 17 Norte 36 Norte 0 -- -- 71
2020-08-01 13:00:00 25.5 18 Norte 29 Nordeste 0 -- -- 67
2020-08-01 12:00:00 24.8 13 Norte 26 Norte 0 -- -- 71
2020-08-01 11:00:00 23.4 16 Noroeste 24 Norte 0 -- -- 76
2020-08-01 10:00:00 21.7 14 Norte 24 Norte 0 -- -- 85
2020-08-01 09:00:00 20.5 14 Norte 22 Norte 0 -- -- 90
2020-08-01 08:00:00 20 10 Norte 15 Norte 0 -- -- 91
2020-08-01 07:00:00 19.9 12 Norte 18 Norte 0 -- -- 91
2020-08-01 06:00:00 19.9 9 Norte 26 Noroeste 0 -- -- 91
2020-08-01 05:00:00 19.9 16 Noroeste 27 Noroeste 0 -- -- 91
2020-08-01 04:00:00 19.8 14 Norte 22 Norte 0 -- -- 91
2020-08-01 03:00:00 19.9 9 Norte 19 Norte 0 -- -- 91
2020-08-01 02:00:00 19.9 10 Norte 16 Norte 0 -- -- 91
2020-08-01 01:00:00 20.4 9 Norte 17 Nordeste 0 -- -- 90
2020-08-01 00:00:00 20.2 8 Nordeste 18 Nordeste 0 -- -- 90
2020-07-31 23:00:00 20.3 12 Nordeste 20 Nordeste 0 -- -- 89
2020-07-31 22:00:00 20.4 11 Nordeste 25 Norte 0 -- -- 88
2020-07-31 21:00:00 20.4 16 Norte 27 Norte 0 -- -- 86
2020-07-31 20:00:00 21.3 17 Norte 29 Norte 0 -- -- 79
2020-07-31 19:00:00 22.4 21 Norte 32 Norte 0 -- -- 76
2020-07-31 18:00:00 23.5 24 Noroeste 33 Noroeste 0 -- -- 71
2020-07-31 17:00:00 24.6 18 Norte 37 Norte 0 -- -- 68
2020-07-31 16:00:00 24.9 20 Norte 32 Norte 0 -- -- 68
2020-07-31 15:00:00 25.1 16 Norte 35 Nordeste 0 -- -- 65
2020-07-31 14:00:00 24.3 18 Nordeste 31 Nordeste 0 -- -- 69
2020-07-31 13:00:00 23.9 18 Nordeste 26 Nordeste 0 -- -- 70
2020-07-31 12:00:00 23.2 13 Nordeste 23 Nordeste 0 -- -- 74
2020-07-31 11:00:00 21.9 13 Nordeste 20 Norte 0 -- -- 80
2020-07-31 10:00:00 20.4 11 Nordeste 17 Nordeste 0 -- -- 85
2020-07-31 09:00:00 19.9 12 Nordeste 18 Norte 0 -- -- 86
2020-07-31 08:00:00 19.4 6 Noroeste 16 Norte 0 -- -- 89
2020-07-31 07:00:00 19.3 8 Nordeste 16 Norte 0 -- -- 89
2020-07-31 06:00:00 19 9 Norte 26 Norte 0 -- -- 88
2020-07-31 05:00:00 18.9 17 Norte 26 Noroeste 0 -- -- 88
2020-07-31 04:00:00 19.3 11 Norte 36 Oeste 0 -- -- 84
2020-07-31 03:00:00 19.3 20 Noroeste 35 Noroeste 0 -- -- 86
2020-07-31 02:00:00 19.5 14 Norte 24 Norte 0 -- -- 87
2020-07-31 01:00:00 19.8 12 Nordeste 22 Nordeste 0 -- -- 86
2020-07-31 00:00:00 19.8 13 Nordeste 25 Nordeste 0 -- -- 85
2020-07-30 23:00:00 20 12 Norte 25 Norte 0 -- -- 85
2020-07-30 22:00:00 20 13 Norte 29 Norte 0 -- -- 84
2020-07-30 21:00:00 20 17 Norte 30 Norte 0 -- -- 84
2020-07-30 20:00:00 20.5 19 Norte 31 Norte 0 -- -- 79
2020-07-30 19:00:00 21.9 20 Norte 34 Norte 0 -- -- 74
2020-07-30 18:00:00 22.2 21 Norte 34 Norte 0 -- -- 74
2020-07-30 17:00:00 23.1 23 Norte 37 Nordeste 0 -- -- 72
2020-07-30 16:00:00 24.2 22 Noroeste 35 Noroeste 0 -- -- 66
2020-07-30 15:00:00 23.7 26 Nordeste 39 Nordeste 0 -- -- 69
2020-07-30 14:00:00 23.7 24 Nordeste 35 Norte 0 -- -- 68
2020-07-30 13:00:00 22.8 20 Norte 29 Nordeste 0 -- -- 70
2020-07-30 12:00:00 22 18 Norte 33 Norte 0 -- -- 73
2020-07-30 11:00:00 21.1 20 Norte 32 Norte 0 -- -- 77
2020-07-30 10:00:00 20.3 16 Norte 27 Norte 0 -- -- 81
2020-07-30 09:00:00 19.5 16 Norte 28 Norte 0 -- -- 83
2020-07-30 08:00:00 18.9 14 Norte 26 Norte 0 -- -- 85
2020-07-30 07:00:00 19 13 Nordeste 30 Nordeste 0 -- -- 85
2020-07-30 06:00:00 19.1 15 Norte 27 Norte 0 -- -- 85
2020-07-30 05:00:00 18.9 14 Norte 32 Norte 0 -- -- 84
2020-07-30 04:00:00 19.1 18 Norte 34 Norte 0 -- -- 84
2020-07-30 03:00:00 19.3 18 Norte 33 Norte 0 -- -- 82
2020-07-30 02:00:00 19.4 14 Norte 32 Norte 0 -- -- 83
2020-07-30 01:00:00 19.5 19 Norte 36 Norte 0 -- -- 83
2020-07-30 00:00:00 19.6 19 Norte 34 Norte 0 -- -- 82
2020-07-29 23:00:00 19.6 22 Norte 38 Norte 0 -- -- 82
2020-07-29 22:00:00 19.9 21 Norte 39 Norte 0 -- -- 82
2020-07-29 21:00:00 20 24 Norte 40 Norte 0 -- -- 81
2020-07-29 20:00:00 20.7 20 Norte 35 Norte 0 -- -- 78
2020-07-29 19:00:00 21.8 22 Norte 39 Norte 0 -- -- 76
2020-07-29 18:00:00 22.1 30 Norte 44 Norte 0 -- -- 73
2020-07-29 17:00:00 23.1 26 Norte 45 Norte 0 -- -- 70
2020-07-29 16:00:00 23.9 28 Norte 46 Norte 0 -- -- 68
2020-07-29 15:00:00 24.2 29 Norte 48 Norte 0 -- -- 65
2020-07-29 14:00:00 24.2 28 Norte 49 Norte 0 -- -- 66
2020-07-29 13:00:00 23.3 32 Norte 46 Norte 0 -- -- 69
2020-07-29 12:00:00 22.7 29 Norte 45 Norte 0 -- -- 71
2020-07-29 11:00:00 22.5 25 Norte 42 Norte 0 -- -- 71
2020-07-29 10:00:00 21.1 25 Norte 41 Nordeste 0 -- -- 83
2020-07-29 09:00:00 20.5 18 Norte 35 Nordeste 0 -- -- 83
2020-07-29 08:00:00 19.8 17 Norte 39 Norte 0 -- -- 85
2020-07-29 07:00:00 19.6 24 Norte 40 Norte 0 -- -- 84
2020-07-29 06:00:00 19.5 22 Norte 41 Norte 0 -- -- 85
2020-07-29 05:00:00 19.6 23 Norte 38 Norte 0 -- -- 86
2020-07-29 04:00:00 19.5 18 Norte 42 Norte 0 -- -- 87
2020-07-29 03:00:00 19.5 23 Norte 42 Norte 0 -- -- 88
2020-07-29 02:00:00 19.4 30 Norte 44 Norte 0 -- -- 88
2020-07-29 01:00:00 19.6 30 Norte 45 Norte 0 -- -- 88
2020-07-29 00:00:00 19.9 27 Norte 44 Norte 0 -- -- 87
2020-07-28 23:00:00 19.9 27 Norte 43 Norte 0 -- -- 87
2020-07-28 22:00:00 20.1 23 Norte 43 Norte 0 -- -- 88
2020-07-28 21:00:00 20.1 27 Norte 46 Norte 0 -- -- 87
2020-07-28 20:00:00 20.6 29 Norte 46 Norte 0 -- -- 85
2020-07-28 19:00:00 21.9 24 Norte 48 Norte 0 -- -- 80
2020-07-28 18:00:00 22.4 23 Norte 46 Norte 0 -- -- 78
2020-07-28 17:00:00 23.1 30 Norte 45 Norte 0 -- -- 75
2020-07-28 16:00:00 22.5 24 Norte 40 Nordeste 0 -- -- 77
2020-07-28 15:00:00 22.9 26 Norte 41 Nordeste 0 -- -- 76
2020-07-28 14:00:00 22.8 26 Norte 42 Norte 0 -- -- 76
2020-07-28 13:00:00 22.6 24 Norte 46 Norte 0 -- -- 78
2020-07-28 12:00:00 22.1 28 Norte 48 Norte 0 -- -- 81
2020-07-28 11:00:00 21 24 Norte 39 Norte 0 -- -- 86
2020-07-28 10:00:00 20.4 22 Norte 38 Norte 0 -- -- 89
2020-07-28 09:00:00 19.9 22 Norte 37 Norte 0 -- -- 92
2020-07-28 08:00:00 19.6 22 Norte 38 Norte 0 -- -- 93
2020-07-28 07:00:00 19.3 22 Norte 39 Norte 0 -- -- 93
2020-07-28 06:00:00 19.3 24 Norte 47 Norte 0 -- -- 92
2020-07-28 05:00:00 19.1 21 Norte 41 Norte 0 -- -- 92
2020-07-28 04:00:00 19.3 26 Norte 37 Norte 0 -- -- 93
2020-07-28 03:00:00 19.5 21 Norte 36 Norte 0 -- -- 92
2020-07-28 02:00:00 19.5 22 Norte 35 Norte 0 -- -- 92
2020-07-28 01:00:00 19.8 19 Norte 34 Norte 0 -- -- 91
2020-07-28 00:00:00 19.9 19 Norte 36 Norte 0 -- -- 91
2020-07-27 23:00:00 20 21 Norte 39 Norte 0 -- -- 90
2020-07-27 22:00:00 20.3 21 Norte 39 Norte 0 -- -- 89
2020-07-27 21:00:00 20.3 28 Norte 40 Norte 0 -- -- 87
2020-07-27 20:00:00 20.9 25 Norte 44 Norte 0 -- -- 84
2020-07-27 19:00:00 22 27 Noroeste 44 Noroeste 0 -- -- 78
2020-07-27 18:00:00 23 27 Noroeste 42 Noroeste 0 -- -- 73
2020-07-27 17:00:00 25.5 22 Noroeste 32 Noroeste 0 -- -- 61
2020-07-27 16:00:00 25.9 21 Noroeste 39 Noroeste 0 -- -- 59
2020-07-27 15:00:00 24.2 26 Norte 39 Norte 0 -- -- 71
2020-07-27 14:00:00 24.4 26 Norte 41 Norte 0 -- -- 70
2020-07-27 13:00:00 23.6 28 Norte 40 Norte 0 -- -- 73
2020-07-27 12:00:00 22.7 26 Norte 36 Norte 0 -- -- 78
2020-07-27 11:00:00 21.3 21 Nordeste 30 Norte 0 -- -- 84
2020-07-27 08:00:00 -- -- -- -- -- -- -- -- --
2020-07-27 07:00:00 -- -- -- -- -- -- -- -- --
2020-07-27 06:00:00 -- -- -- -- -- -- -- -- --
2020-07-27 05:00:00 18.8 25 Norte 39 Noroeste 0 -- -- 90
2020-07-27 04:00:00 18.8 22 Norte 43 Norte 0 -- -- 89
2020-07-27 03:00:00 19.2 21 Norte 38 Norte 0 -- -- 88
2020-07-27 02:00:00 19.6 19 Nordeste 31 Norte 0 -- -- 88
2020-07-27 01:00:00 19.7 19 Norte 33 Norte 0 -- -- 88
2020-07-27 00:00:00 19.9 17 Norte 32 Norte 0 -- -- 88
2020-07-26 23:00:00 19.9 22 Norte 36 Norte 0 -- -- 87
2020-07-26 22:00:00 20 23 Norte 38 Noroeste 0 -- -- 86
2020-07-26 21:00:00 20.2 22 Noroeste 41 Norte 0 -- -- 84
2020-07-26 20:00:00 20.9 27 Noroeste 45 Noroeste 0 -- -- 80
2020-07-26 19:00:00 21.9 31 Norte 43 Noroeste 0 -- -- 76
2020-07-26 18:00:00 23.2 22 Norte 38 Norte 0 -- -- 72
2020-07-26 17:00:00 23.9 24 Norte 37 Norte 0 -- -- 67
2020-07-26 16:00:00 23.9 25 Norte 38 Norte 0 -- -- 69
2020-07-26 15:00:00 23.7 24 Norte 42 Nordeste 0 -- -- 68
2020-07-26 14:00:00 22.7 23 Norte 39 Norte 0 -- -- 73
2020-07-26 13:00:00 22.9 29 Norte 44 Norte 0 -- -- 72
2020-07-26 12:00:00 21.4 23 Norte 39 Norte 0 -- -- 78
2020-07-26 11:00:00 20.8 21 Norte 37 Norte 0 -- -- 82
2020-07-26 10:00:00 20.1 21 Norte 44 Norte 0 -- -- 86
2020-07-26 09:00:00 19.5 22 Norte 40 Norte 0 -- -- 88
2020-07-26 08:00:00 19.4 23 Norte 41 Norte 0 -- -- 88
2020-07-26 07:00:00 19.4 23 Norte 46 Norte 0 -- -- 88
2020-07-26 06:00:00 19.6 24 Norte 36 Norte 0 -- -- 87
2020-07-26 05:00:00 19.7 22 Norte 38 Norte 0 -- -- 87
2020-07-26 04:00:00 19.7 24 Norte 40 Norte 0 -- -- 88
2020-07-26 03:00:00 19.6 26 Norte 39 Norte 0 -- -- 87
2020-07-26 02:00:00 19.9 20 Norte 41 Norte 0 -- -- 88
2020-07-26 01:00:00 19.9 19 Norte 38 Norte 0 -- -- 88
2020-07-26 00:00:00 20 25 Norte 41 Norte 0 -- -- 88
2020-07-25 23:00:00 20 22 Norte 44 Norte 0 -- -- 89
2020-07-25 22:00:00 19.8 28 Norte 41 Norte 0 -- -- 88
2020-07-25 21:00:00 20.2 24 Norte 40 Noroeste 0 -- -- 86
2020-07-25 20:00:00 20.7 26 Norte 49 Noroeste 0 -- -- 85
2020-07-25 19:00:00 21.4 33 Noroeste 49 Noroeste 0 -- -- 80
2020-07-25 18:00:00 22.8 29 Norte 48 Noroeste 0 -- -- 75
2020-07-25 17:00:00 23.8 24 Noroeste 44 Norte 0 -- -- 71
2020-07-25 16:00:00 24 29 Noroeste 40 Noroeste 0 -- -- 69
2020-07-25 15:00:00 24.1 26 Noroeste 44 Norte 0 -- -- 70
2020-07-25 14:00:00 24 29 Norte 46 Noroeste 0 -- -- 70
2020-07-25 13:00:00 23.7 29 Noroeste 44 Noroeste 0 -- -- 71
2020-07-25 12:00:00 23.3 24 Noroeste 44 Noroeste 0 -- -- 74
2020-07-25 11:00:00 22.6 31 Noroeste 41 Noroeste 0 -- -- 75
2020-07-25 10:00:00 21.9 29 Noroeste 47 Noroeste 0 -- -- 78
2020-07-25 09:00:00 20.3 30 Noroeste 43 Noroeste 0 -- -- 86
2020-07-25 08:00:00 19.5 28 Noroeste 45 Noroeste 0 -- -- 89
2020-07-25 07:00:00 19.3 26 Noroeste 42 Noroeste 0 -- -- 87
2020-07-25 06:00:00 19.9 27 Noroeste 44 Noroeste 0 -- -- 82
2020-07-25 05:00:00 19.9 27 Noroeste 42 Noroeste 0 -- -- 82
2020-07-25 04:00:00 19.8 24 Noroeste 41 Noroeste 0 -- -- 85
2020-07-25 03:00:00 20 21 Noroeste 36 Noroeste 0 -- -- 84
2020-07-25 02:00:00 19.8 24 Noroeste 42 Noroeste 0 -- -- 88
2020-07-25 01:00:00 20.1 29 Noroeste 42 Noroeste 0 -- -- 89
2020-07-25 00:00:00 19.9 30 Noroeste 41 Oeste 0 -- -- 89
2020-07-24 23:00:00 19.7 31 Oeste 46 Noroeste 0 -- -- 91
2020-07-24 22:00:00 19.8 32 Oeste 48 Oeste 0 -- -- 91
2020-07-24 21:00:00 20.2 31 Noroeste 45 Noroeste 0 -- -- 88
2020-07-24 20:00:00 20.8 27 Noroeste 41 Noroeste 0 -- -- 85
2020-07-24 19:00:00 22.3 28 Noroeste 43 Noroeste 0 -- -- 79
2020-07-24 18:00:00 23.8 29 Noroeste 43 Noroeste 0 -- -- 73
2020-07-24 17:00:00 24.9 32 Noroeste 42 Oeste 0 -- -- 67
2020-07-24 16:00:00 25.5 27 Noroeste 42 Noroeste 0 -- -- 62
2020-07-24 15:00:00 25.5 26 Noroeste 43 Noroeste 0 -- -- 64
2020-07-24 14:00:00 25.2 26 Noroeste 38 Noroeste 0 -- -- 66
2020-07-24 13:00:00 24.6 25 Noroeste 37 Noroeste 0 -- -- 70
2020-07-24 12:00:00 24.5 20 Noroeste 35 Noroeste 0 -- -- 70
2020-07-24 11:00:00 23.1 26 Noroeste 35 Noroeste 0 -- -- 77
2020-07-24 10:00:00 21.5 20 Norte 39 Norte 0 -- -- 90
2020-07-24 09:00:00 19.6 28 Norte 40 Norte 0 -- -- 94
2020-07-24 08:00:00 19.3 23 Norte 41 Norte 0 -- -- 95
2020-07-24 07:00:00 19.2 26 Norte 40 Noroeste 0 -- -- 94
2020-07-24 06:00:00 19.2 22 Norte 38 Norte 0 -- -- 94
2020-07-24 05:00:00 19.1 20 Norte 35 Noroeste 0 -- -- 94
2020-07-24 04:00:00 18.8 19 Norte 38 Norte 0 -- -- 93
2020-07-24 03:00:00 18.9 25 Noroeste 41 Noroeste 0 -- -- 94
2020-07-24 02:00:00 19 26 Noroeste 39 Noroeste 0 -- -- 94
2020-07-24 01:00:00 19 26 Noroeste 42 Noroeste 0 -- -- 93
2020-07-24 00:00:00 19.3 28 Noroeste 39 Noroeste 0 -- -- 92
2020-07-23 23:00:00 19.3 28 Noroeste 42 Noroeste 0 -- -- 91
2020-07-23 22:00:00 19.6 27 Noroeste 43 Noroeste 0 -- -- 89
2020-07-23 21:00:00 19.7 31 Noroeste 41 Noroeste 0 -- -- 89
2020-07-23 20:00:00 20.6 30 Noroeste 42 Noroeste 0 -- -- 84
2020-07-23 19:00:00 22 30 Noroeste 40 Noroeste 0 -- -- 78
2020-07-23 18:00:00 23.6 22 Norte 38 Norte 0 -- -- 74
2020-07-23 17:00:00 23.7 28 Norte 42 Norte 0 -- -- 72
2020-07-23 16:00:00 24.1 24 Norte 39 Norte 0 -- -- 71
2020-07-23 15:00:00 23.7 28 Norte 42 Norte 0 -- -- 74
2020-07-23 14:00:00 23.4 27 Norte 43 Norte 0 -- -- 74
2020-07-23 13:00:00 22.3 23 Norte 36 Norte 0 -- -- 80
2020-07-23 12:00:00 21.9 21 Norte 45 Norte 0 -- -- 82
2020-07-23 11:00:00 21.6 32 Norte 47 Norte 0 -- -- 83
2020-07-23 10:00:00 20.1 29 Norte 40 Norte 0 -- -- 90
2020-07-23 09:00:00 19.4 23 Norte 35 Norte 0 -- -- 93
2020-07-23 08:00:00 19 25 Norte 35 Norte 0 -- -- 93
2020-07-23 07:00:00 18.9 27 Norte 39 Norte 0 -- -- 93
2020-07-23 06:00:00 18.8 21 Norte 40 Norte 0 -- -- 93
2020-07-23 05:00:00 18.9 21 Norte 35 Noroeste 0 -- -- 92
2020-07-23 04:00:00 19.1 27 Norte 44 Noroeste 0 -- -- 90
2020-07-23 03:00:00 19.5 27 Noroeste 37 Noroeste 0 -- -- 86
2020-07-23 02:00:00 20 25 Noroeste 39 Noroeste 0 -- -- 82
2020-07-23 01:00:00 20.2 28 Noroeste 40 Noroeste 0 -- -- 80
2020-07-23 00:00:00 20.8 27 Noroeste 40 Noroeste 0 -- -- 78
2020-07-22 23:00:00 20.3 27 Noroeste 37 Noroeste 0 -- -- 83
2020-07-22 22:00:00 19.7 23 Noroeste 33 Norte 0 -- -- 89
2020-07-22 21:00:00 20.1 16 Norte 30 Norte 0 -- -- 86
2020-07-22 20:00:00 20.9 22 Noroeste 41 Noroeste 0 -- -- 83
2020-07-22 19:00:00 21.5 27 Noroeste 42 Noroeste 0 -- -- 79
2020-07-22 18:00:00 23 30 Noroeste 46 Noroeste 0 -- -- 74
2020-07-22 17:00:00 23.7 26 Norte 39 Norte 0 -- -- 71
2020-07-22 16:00:00 24.5 25 Norte 41 Nordeste 0 -- -- 68
2020-07-22 15:00:00 24.4 26 Norte 37 Nordeste 0 -- -- 67
2020-07-22 14:00:00 23.8 23 Norte 38 Norte 0 -- -- 70
2020-07-22 13:00:00 23.5 25 Nordeste 42 Nordeste 0 -- -- 71
2020-07-22 12:00:00 22.9 25 Nordeste 40 Nordeste 0 -- -- 73
2020-07-22 11:00:00 21.7 21 Nordeste 36 Nordeste 0 -- -- 79
2020-07-22 10:00:00 20.4 20 Nordeste 34 Nordeste 0 -- -- 83
2020-07-22 09:00:00 20 19 Nordeste 31 Nordeste 0 -- -- 85
2020-07-22 08:00:00 19.7 18 Norte 31 Nordeste 0 -- -- 85
2020-07-22 07:00:00 19.5 18 Norte 28 Nordeste 0 -- -- 85
2020-07-22 06:00:00 19.7 16 Norte 35 Norte 0 -- -- 85
2020-07-22 05:00:00 19.5 21 Norte 34 Norte 0 -- -- 84
2020-07-22 04:00:00 19.5 21 Norte 34 Norte 0 -- -- 83
2020-07-22 03:00:00 19.7 14 Norte 31 Norte 0 -- -- 83
2020-07-22 02:00:00 19.7 13 Norte 32 Norte 0 -- -- 85
2020-07-22 01:00:00 19.8 18 Norte 29 Norte 0 -- -- 86
2020-07-22 00:00:00 19.9 19 Norte 30 Norte 0 -- -- 86
2020-07-21 23:00:00 20.2 20 Norte 33 Norte 0 -- -- 84
2020-07-21 22:00:00 19.9 17 Norte 30 Norte 0 -- -- 82
2020-07-21 21:00:00 20.2 17 Noroeste 32 Noroeste 0 -- -- 78
2020-07-21 20:00:00 21.1 19 Noroeste 39 Norte 0 -- -- 75
2020-07-21 19:00:00 22.5 22 Norte 38 Norte 0 -- -- 68
2020-07-21 18:00:00 23.1 26 Norte 43 Norte 0 -- -- 62
2020-07-21 17:00:00 24 23 Norte 40 Norte 0 -- -- 60
2020-07-21 16:00:00 24.9 19 Norte 37 Noroeste 0 -- -- 58
2020-07-21 15:00:00 24.6 21 Norte 38 Norte 0 -- -- 59
2020-07-21 14:00:00 24.9 20 Norte 39 Nordeste 0 -- -- 60
2020-07-21 13:00:00 23.4 25 Nordeste 36 Nordeste 0 -- -- 64
2020-07-21 12:00:00 24 17 Norte 45 Noroeste 0 -- -- 65
2020-07-21 11:00:00 22.2 25 Noroeste 43 Noroeste 0 -- -- 70
2020-07-21 10:00:00 21.4 22 Norte 42 Norte 0 -- -- 71
2020-07-21 09:00:00 20.1 26 Noroeste 41 Norte 0 -- -- 77
2020-07-21 08:00:00 19.2 23 Norte 35 Noroeste 0 -- -- 79
2020-07-21 07:00:00 19.3 15 Norte 28 Norte 0 -- -- 80
2020-07-21 06:00:00 19.3 15 Norte 27 Norte 0 -- -- 79
2020-07-21 05:00:00 19.5 10 Norte 31 Norte 0 -- -- 81
2020-07-21 04:00:00 19.1 18 Norte 40 Norte 0 -- -- 83
2020-07-21 03:00:00 19.5 27 Norte 37 Norte 0 -- -- 85
2020-07-21 02:00:00 19.7 19 Norte 38 Norte 0 -- -- 85
2020-07-21 01:00:00 19.9 24 Norte 37 Norte 0 -- -- 84
2020-07-21 00:00:00 19.9 24 Norte 37 Norte 0 -- -- 82
2020-07-20 23:00:00 19.7 20 Norte 40 Norte 0 -- -- 81
2020-07-20 22:00:00 19.8 25 Noroeste 41 Norte 0 -- -- 83
2020-07-20 21:00:00 20.2 24 Norte 40 Norte 0 -- -- 80
2020-07-20 20:00:00 21.3 17 Norte 37 Norte 0 -- -- 74
2020-07-20 19:00:00 22.5 19 Norte 42 Noroeste 0 -- -- 69
2020-07-20 18:00:00 23 27 Noroeste 56 Noroeste 0 -- -- 70
2020-07-20 17:00:00 23.6 33 Noroeste 56 Noroeste 0 -- -- 68
2020-07-20 16:00:00 24.3 30 Noroeste 45 Noroeste 0 -- -- 64
2020-07-20 15:00:00 23.9 28 Noroeste 43 Noroeste 0 -- -- 67
2020-07-20 14:00:00 23.7 26 Noroeste 45 Noroeste 0 -- -- 69
2020-07-20 13:00:00 23.4 28 Noroeste 45 Norte 0 -- -- 72
2020-07-20 12:00:00 23 26 Noroeste 52 Noroeste 0 -- -- 74
2020-07-20 11:00:00 22.6 30 Noroeste 44 Noroeste 0 -- -- 76
2020-07-20 10:00:00 21.6 25 Noroeste 46 Noroeste 0 -- -- 82
2020-07-20 09:00:00 21.1 29 Noroeste 41 Oeste 0 -- -- 81
2020-07-20 08:00:00 20.5 24 Oeste 42 Oeste 0 -- -- 83
2020-07-20 07:00:00 20.7 27 Oeste 48 Oeste 0 -- -- 80
2020-07-20 06:00:00 20.9 32 Oeste 50 Oeste 0 -- -- 79
2020-07-20 05:00:00 20.9 29 Oeste 53 Noroeste 0 -- -- 78
2020-07-20 04:00:00 22.5 36 Noroeste 52 Noroeste 0 -- -- 67
2020-07-20 03:00:00 22.3 22 Noroeste 40 Noroeste 0 -- -- 66
2020-07-20 02:00:00 22.6 28 Noroeste 51 Noroeste 0 -- -- 67
2020-07-20 01:00:00 22.4 30 Noroeste 48 Noroeste 0 -- -- 70
2020-07-20 00:00:00 25.1 29 Noroeste 50 Noroeste 0 -- -- 48
2020-07-19 23:00:00 25.4 36 Noroeste 62 Noroeste 0 -- -- 44
2020-07-19 22:00:00 25.2 36 Noroeste 59 Noroeste 0 -- -- 44
2020-07-19 21:00:00 25.9 33 Noroeste 53 Noroeste 0 -- -- 29
2020-07-19 20:00:00 26.2 25 Oeste 41 Noroeste 0 -- -- 42
2020-07-19 19:00:00 29.9 23 Noroeste 37 Noroeste 0 -- -- 26
2020-07-19 18:00:00 29.1 26 Noroeste 44 Noroeste 0 -- -- 36
2020-07-19 17:00:00 28.3 30 Noroeste 48 Noroeste 0 -- -- 44
2020-07-19 16:00:00 31.4 29 Norte 44 Norte 0 -- -- 28
2020-07-19 15:00:00 31.8 22 Norte 39 Norte 0 -- -- 30
2020-07-19 14:00:00 32.2 15 Noroeste 50 Norte 0 -- -- 31
2020-07-19 13:00:00 32.4 28 Norte 45 Norte 0 -- -- 26
2020-07-19 12:00:00 31.5 26 Norte 45 Norte 0 -- -- 29
2020-07-19 11:00:00 30.8 28 Norte 48 Norte 0 -- -- 27
2020-07-19 10:00:00 30.7 30 Norte 46 Norte 0 -- -- 24
2020-07-19 09:00:00 28.4 29 Norte 45 Norte 0 -- -- 28
2020-07-19 08:00:00 26.6 26 Norte 44 Norte 0 -- -- 30
2020-07-19 07:00:00 25.5 13 Norte 39 Norte 0 -- -- 34
2020-07-19 06:00:00 25.4 19 Norte 42 Norte 0 -- -- 37
2020-07-19 05:00:00 25.9 21 Norte 40 Nordeste 0 -- -- 30
2020-07-19 04:00:00 25.7 26 Norte 49 Norte 0 -- -- 37
2020-07-19 03:00:00 25.6 34 Norte 50 Norte 0 -- -- 38
2020-07-19 02:00:00 26.2 28 Norte 49 Norte 0 -- -- 37
2020-07-19 01:00:00 27.6 30 Norte 45 Norte 0 -- -- 28
2020-07-19 00:00:00 27.6 23 Norte 39 Norte 0 -- -- 33
2020-07-18 23:00:00 28.2 23 Norte 39 Norte 0 -- -- 33
2020-07-18 22:00:00 27.1 25 Noroeste 44 Noroeste 0 -- -- 39
2020-07-18 21:00:00 28.6 22 Noroeste 42 Noroeste 0 -- -- 34
2020-07-18 20:00:00 30 17 Norte 39 Norte 0 -- -- 31
2020-07-18 19:00:00 31 24 Norte 40 Norte 0 -- -- 26
2020-07-18 18:00:00 32.1 15 Norte 39 Norte 0 -- -- 28
2020-07-18 17:00:00 32.2 21 Norte 33 Norte 0 -- -- 26
2020-07-18 16:00:00 31.7 15 Noroeste 29 Noroeste 0 -- -- 31
2020-07-18 15:00:00 31.6 19 Noroeste 33 Noroeste 0 -- -- 35
2020-07-18 14:00:00 31.6 19 Noroeste 29 Noroeste 0 -- -- 35
2020-07-18 13:00:00 31.1 15 Norte 31 Nordeste 0 -- -- 41
2020-07-18 12:00:00 31.8 16 Norte 28 Nordeste 0 -- -- 28
2020-07-18 11:00:00 31.4 15 Nordeste 28 Nordeste 0 -- -- 25
2020-07-18 10:00:00 30.1 12 Norte 26 Nordeste 0 -- -- 28
2020-07-18 09:00:00 28.5 13 Norte 25 Norte 0 -- -- 31
2020-07-18 08:00:00 26.3 15 Norte 37 Norte 0 -- -- 39
2020-07-18 07:00:00 25.5 14 Norte 27 Norte 0 -- -- 38
2020-07-18 06:00:00 24.7 10 Norte 28 Norte 0 -- -- 40
2020-07-18 05:00:00 24.8 19 Norte 32 Norte 0 -- -- 41
2020-07-18 04:00:00 23.9 13 Norte 27 Norte 0 -- -- 48
2020-07-18 03:00:00 23.1 14 Noroeste 29 Noroeste 0 -- -- 58
2020-07-18 02:00:00 22.8 15 Noroeste 37 Norte 0 -- -- 63
2020-07-18 01:00:00 24.7 19 Norte 33 Norte 0 -- -- 51
2020-07-18 00:00:00 26.3 16 Noroeste 32 Noroeste 0 -- -- 42
2020-07-17 23:00:00 25.3 14 Noroeste 39 Noroeste 0 -- -- 50
2020-07-17 22:00:00 26.8 11 Noroeste 34 Noroeste 0 -- -- 38
2020-07-17 21:00:00 27.3 3 Sur 33 Oeste 0 -- -- 38
2020-07-17 20:00:00 25.7 25 Noroeste 41 Noroeste 0 -- -- 50
2020-07-17 19:00:00 27.4 21 Oeste 44 Oeste 0 -- -- 49
2020-07-17 18:00:00 29.2 31 Noroeste 53 Noroeste 0 -- -- 39
2020-07-17 17:00:00 30.4 13 Noroeste 28 Norte 0 -- -- 44
2020-07-17 16:00:00 31 13 Noroeste 25 Norte 0 -- -- 37
2020-07-17 15:00:00 29.9 14 Oeste 34 Oeste 0 -- -- 41
2020-07-17 14:00:00 31.3 17 Noroeste 26 Norte 0 -- -- 32
2020-07-17 13:00:00 31.3 17 Norte 23 Norte 0 -- -- 34
2020-07-17 12:00:00 29.5 5 Noroeste 18 Sur 0 -- -- 46
2020-07-17 11:00:00 26.6 7 Este 16 Sudeste 0 -- -- 62
2020-07-17 10:00:00 24.2 5 Este 26 Oeste 0 -- -- 72
2020-07-17 09:00:00 21.5 10 Oeste 31 Oeste 0 -- -- 82
2020-07-17 08:00:00 19.8 23 Oeste 32 Oeste 0 -- -- 85
2020-07-17 07:00:00 19.7 12 Oeste 19 Noroeste 0 -- -- 81
2020-07-17 06:00:00 20.1 11 Noroeste 23 Oeste 0 -- -- 78
2020-07-17 05:00:00 19.4 8 Noroeste 11 Noroeste 0 -- -- 76
2020-07-17 04:00:00 20.2 7 Noroeste 15 Noroeste 0 -- -- 66
2020-07-17 03:00:00 20.8 9 Oeste 20 Noroeste 0 -- -- 68
2020-07-17 02:00:00 23.8 7 Noroeste 24 Noroeste 0 -- -- 37
2020-07-17 01:00:00 22.3 10 Noroeste 27 Norte 0 -- -- 51
2020-07-17 00:00:00 22 15 Norte 29 Oeste 0 -- -- 59
2020-07-16 23:00:00 20.4 25 Oeste 37 Oeste 0 -- -- 77
2020-07-16 22:00:00 22.7 25 Noroeste 42 Oeste 0 -- -- 60
2020-07-16 21:00:00 20.5 35 Oeste 46 Oeste 0 -- -- 81
2020-07-16 20:00:00 21.2 35 Oeste 47 Oeste 0 -- -- 77
2020-07-16 19:00:00 22.3 35 Oeste 50 Oeste 0 -- -- 75
2020-07-16 18:00:00 23.4 35 Oeste 45 Oeste 0 -- -- 70
2020-07-16 17:00:00 24.6 28 Oeste 50 Oeste 0 -- -- 68
2020-07-16 16:00:00 23.9 32 Oeste 46 Oeste 0 -- -- 72
2020-07-16 15:00:00 24.4 31 Oeste 41 Oeste 0 -- -- 69
2020-07-16 14:00:00 27 17 Oeste 28 Oeste 0 -- -- 59
2020-07-16 13:00:00 26.5 15 Oeste 27 Oeste 0 -- -- 59
2020-07-16 12:00:00 26.2 13 Norte 25 Norte 0 -- -- 57
2020-07-16 11:00:00 24.6 17 Norte 26 Norte 0 -- -- 64
2020-07-16 10:00:00 22.8 17 Noroeste 27 Noroeste 0 -- -- 73
2020-07-16 09:00:00 21.3 14 Noroeste 23 Noroeste 0 -- -- 80
2020-07-16 08:00:00 20.3 14 Oeste 32 Oeste 0 -- -- 85
2020-07-16 07:00:00 19.1 20 Oeste 30 Oeste 0 -- -- 92
2020-07-16 06:00:00 18.6 14 Noroeste 33 Norte 0 -- -- 94
2020-07-16 05:00:00 18.7 20 Norte 28 Norte 0 -- -- 95
2020-07-16 04:00:00 18.7 18 Norte 33 Noroeste 0 -- -- 94
2020-07-16 03:00:00 18.8 15 Norte 25 Norte 0 -- -- 93
2020-07-16 02:00:00 19 21 Norte 38 Noroeste 0 -- -- 91
2020-07-16 01:00:00 19.4 28 Noroeste 39 Noroeste 0 -- -- 89
2020-07-16 00:00:00 19.5 28 Noroeste 46 Noroeste 0 -- -- 89
2020-07-15 23:00:00 19.4 35 Noroeste 47 Noroeste 0 -- -- 89
2020-07-15 22:00:00 19.9 28 Noroeste 40 Oeste 0 -- -- 86
2020-07-15 21:00:00 20.2 26 Noroeste 41 Noroeste 0 -- -- 86
2020-07-15 20:00:00 20.4 28 Noroeste 41 Noroeste 0 -- -- 85
2020-07-15 19:00:00 21.4 28 Noroeste 40 Noroeste 0 -- -- 80
2020-07-15 18:00:00 22.5 28 Norte 50 Norte 0 -- -- 77
2020-07-15 17:00:00 22.9 22 Norte 41 Norte 0 -- -- 76
2020-07-15 16:00:00 23.5 25 Norte 49 Noroeste 0 -- -- 75
2020-07-15 15:00:00 23.5 33 Norte 47 Noroeste 0 -- -- 75
2020-07-15 14:00:00 23.6 33 Noroeste 48 Noroeste 0 -- -- 75
2020-07-15 13:00:00 23.5 33 Noroeste 50 Noroeste 0 -- -- 77
2020-07-15 12:00:00 23 32 Noroeste 49 Noroeste 0 -- -- 79
2020-07-15 11:00:00 22.3 24 Norte 43 Norte 0 -- -- 84
2020-07-15 10:00:00 21.7 24 Norte 42 Norte 0 -- -- 85
2020-07-15 09:00:00 20.5 31 Noroeste 46 Noroeste 0 -- -- 91
2020-07-15 08:00:00 19.7 32 Noroeste 46 Noroeste 0 -- -- 92
2020-07-15 07:00:00 19.9 32 Noroeste 46 Noroeste 0 -- -- 91
2020-07-15 06:00:00 19.4 31 Noroeste 46 Noroeste 0 -- -- 92
2020-07-15 05:00:00 19.7 28 Noroeste 48 Noroeste 0 -- -- 90
2020-07-15 04:00:00 19.9 30 Noroeste 48 Noroeste 0 -- -- 87
2020-07-15 03:00:00 20.8 28 Noroeste 57 Noroeste 0 -- -- 79
2020-07-15 02:00:00 20.8 34 Noroeste 66 Noroeste 0 -- -- 79
2020-07-15 01:00:00 20.6 39 Noroeste 51 Noroeste 0 -- -- 81
2020-07-15 00:00:00 20.4 36 Noroeste 55 Oeste 0 -- -- 82
2020-07-14 23:00:00 20.6 37 Noroeste 55 Noroeste 0 -- -- 79
2020-07-14 22:00:00 20.8 35 Noroeste 53 Noroeste 0 -- -- 78
2020-07-14 21:00:00 21.8 37 Noroeste 63 Noroeste 0 -- -- 70
2020-07-14 20:00:00 23 35 Noroeste 55 Noroeste 0 -- -- 66
2020-07-14 19:00:00 23.1 30 Noroeste 47 Noroeste 0 -- -- 73
2020-07-14 18:00:00 23.9 31 Noroeste 53 Noroeste 0 -- -- 73
2020-07-14 17:00:00 23.6 34 Noroeste 54 Oeste 0 -- -- 76
2020-07-14 16:00:00 24 36 Noroeste 51 Oeste 0 -- -- 73
2020-07-14 15:00:00 24.1 33 Noroeste 50 Noroeste 0 -- -- 71
2020-07-14 14:00:00 25.8 32 Noroeste 52 Noroeste 0 -- -- 64
2020-07-14 13:00:00 25.1 28 Noroeste 48 Noroeste 0 -- -- 66
2020-07-14 12:00:00 22.3 30 Noroeste 47 Noroeste 0 -- -- 78
2020-07-14 11:00:00 21.1 28 Noroeste 42 Noroeste 0 -- -- 84
2020-07-14 10:00:00 20 29 Noroeste 45 Noroeste 0 -- -- 88
2020-07-14 09:00:00 19.3 28 Noroeste 44 Noroeste 0 -- -- 91
2020-07-14 08:00:00 18.9 26 Noroeste 45 Noroeste 0 -- -- 90
2020-07-14 07:00:00 18.6 23 Noroeste 37 Noroeste 0 -- -- 90
2020-07-14 06:00:00 18.8 23 Noroeste 43 Noroeste 0 -- -- 90
2020-07-14 05:00:00 18.5 24 Noroeste 44 Noroeste 0 -- -- 89
2020-07-14 04:00:00 18.8 24 Noroeste 40 Noroeste 0 -- -- 90
2020-07-14 03:00:00 18.7 25 Noroeste 39 Oeste 0 -- -- 90
2020-07-14 02:00:00 18.8 26 Noroeste 45 Oeste 0 -- -- 90
2020-07-14 01:00:00 18.9 24 Noroeste 39 Noroeste 0 -- -- 90
2020-07-14 00:00:00 19 27 Noroeste 43 Noroeste 0 -- -- 89
2020-07-13 23:00:00 19.2 27 Noroeste 44 Noroeste 0 -- -- 88
2020-07-13 22:00:00 19.2 25 Noroeste 41 Noroeste 0 -- -- 87
2020-07-13 21:00:00 19.5 26 Noroeste 41 Oeste 0 -- -- 86
2020-07-13 20:00:00 20.7 30 Oeste 42 Oeste 0 -- -- 78
2020-07-13 19:00:00 21.7 30 Noroeste 49 Noroeste 0 -- -- 76
2020-07-13 18:00:00 22.4 36 Noroeste 47 Noroeste 0 -- -- 73
2020-07-13 17:00:00 22.6 29 Norte 42 Norte 0 -- -- 71
2020-07-13 16:00:00 23.4 33 Noroeste 44 Norte 0 -- -- 70
2020-07-13 15:00:00 23.4 29 Noroeste 40 Noroeste 0 -- -- 71
2020-07-13 14:00:00 23.5 26 Noroeste 40 Noroeste 0 -- -- 70
2020-07-13 13:00:00 23.4 25 Norte 37 Norte 0 -- -- 70
2020-07-13 12:00:00 23.9 22 Noroeste 38 Noroeste 0 -- -- 67
2020-07-13 11:00:00 22 27 Noroeste 38 Noroeste 0 -- -- 76
2020-07-13 10:00:00 21.5 22 Noroeste 35 Noroeste 0 -- -- 80
2020-07-13 09:00:00 19.5 16 Norte 30 Norte 0 -- -- 92
2020-07-13 08:00:00 18.6 10 Norte 29 Norte 0 -- -- 92
2020-07-13 07:00:00 18.6 24 Norte 31 Norte 0 -- -- 88
2020-07-13 06:00:00 19 19 Noroeste 32 Noroeste 0 -- -- 86
2020-07-13 05:00:00 18.8 20 Noroeste 37 Oeste 0 -- -- 88
2020-07-13 04:00:00 20.4 22 Noroeste 39 Norte 0 -- -- 77
2020-07-13 03:00:00 19.9 24 Noroeste 32 Noroeste 0 -- -- 86
2020-07-13 02:00:00 18.8 20 Norte 29 Norte 0 -- -- 89
2020-07-13 01:00:00 19.2 20 Norte 28 Norte 0 -- -- 89
2020-07-13 00:00:00 19 17 Norte 29 Norte 0 -- -- 90
2020-07-12 23:00:00 19.2 17 Noroeste 30 Norte 0 -- -- 88
2020-07-12 22:00:00 20 14 Norte 31 Norte 0 -- -- 83
2020-07-12 21:00:00 20.5 16 Noroeste 36 Noroeste 0 -- -- 79
2020-07-12 20:00:00 21.6 27 Noroeste 35 Noroeste 0 -- -- 76
2020-07-12 19:00:00 22.4 25 Noroeste 42 Noroeste 0 -- -- 74
2020-07-12 18:00:00 23.3 22 Noroeste 38 Noroeste 0 -- -- 71
2020-07-12 17:00:00 24.1 25 Norte 41 Nordeste 0 -- -- 68
2020-07-12 16:00:00 24.7 21 Norte 39 Norte 0 -- -- 69
2020-07-12 15:00:00 24.4 23 Norte 36 Norte 0 -- -- 69
2020-07-12 14:00:00 24.8 24 Noroeste 37 Noroeste 0 -- -- 66
2020-07-12 13:00:00 24.5 24 Noroeste 35 Norte 0 -- -- 66
2020-07-12 12:00:00 24.8 17 Norte 33 Norte 0 -- -- 67
2020-07-12 11:00:00 23.1 19 Norte 37 Noroeste 0 -- -- 73
2020-07-12 10:00:00 22 26 Noroeste 37 Norte 0 -- -- 74
2020-07-12 09:00:00 21.8 19 Noroeste 35 Noroeste 0 -- -- 74
2020-07-12 08:00:00 20.9 21 Noroeste 33 Noroeste 0 -- -- 72
2020-07-12 07:00:00 20.5 21 Noroeste 37 Noroeste 0 -- -- 71
2020-07-12 06:00:00 20.2 25 Noroeste 36 Noroeste 0 -- -- 74
2020-07-12 05:00:00 20 23 Noroeste 36 Noroeste 0 -- -- 74
2020-07-12 04:00:00 20.6 22 Noroeste 35 Noroeste 0 -- -- 67
2020-07-12 03:00:00 21.2 22 Noroeste 38 Noroeste 0 -- -- 65
2020-07-12 02:00:00 20 18 Noroeste 28 Norte 0 -- -- 77
2020-07-12 01:00:00 19.3 13 Norte 31 Norte 0 -- -- 83
2020-07-12 00:00:00 19.8 19 Noroeste 32 Noroeste 0 -- -- 79
2020-07-11 23:00:00 19.5 21 Noroeste 32 Norte 0 -- -- 86
2020-07-11 22:00:00 19.3 19 Norte 37 Noroeste 0 -- -- 88
2020-07-11 21:00:00 19.7 26 Noroeste 40 Noroeste 0 -- -- 86
2020-07-11 20:00:00 20.8 29 Noroeste 44 Noroeste 0 -- -- 81
2020-07-11 19:00:00 21.9 31 Noroeste 45 Noroeste 0 -- -- 77
2020-07-11 18:00:00 22.8 30 Noroeste 44 Noroeste 0 -- -- 73
2020-07-11 17:00:00 23.3 30 Noroeste 43 Noroeste 0 -- -- 72
2020-07-11 16:00:00 24.1 28 Norte 40 Norte 0 -- -- 69
2020-07-11 15:00:00 23.8 26 Norte 41 Norte 0 -- -- 71
2020-07-11 14:00:00 23.9 23 Nordeste 39 Nordeste 0 -- -- 72
2020-07-11 13:00:00 24.1 25 Norte 38 Norte 0 -- -- 69
2020-07-11 12:00:00 23.7 22 Noroeste 34 Nordeste 0 -- -- 70
2020-07-11 11:00:00 22.1 24 Noroeste 40 Noroeste 0 -- -- 75
2020-07-11 10:00:00 21.1 28 Noroeste 46 Norte 0 -- -- 82
2020-07-11 09:00:00 19.6 30 Noroeste 40 Norte 0 -- -- 89
2020-07-11 08:00:00 18.7 20 Norte 35 Noroeste 0 -- -- 92
2020-07-11 07:00:00 18.8 18 Norte 40 Norte 0 -- -- 92
2020-07-11 06:00:00 18.7 21 Norte 39 Norte 0 -- -- 93
2020-07-11 05:00:00 18.8 17 Norte 36 Norte 0 -- -- 92
2020-07-11 04:00:00 18.7 26 Norte 38 Norte 0 -- -- 93
2020-07-11 03:00:00 18.7 20 Norte 44 Noroeste 0 -- -- 93
2020-07-11 02:00:00 18.5 31 Noroeste 50 Noroeste 0 -- -- 93
2020-07-11 01:00:00 18.6 27 Noroeste 46 Noroeste 0 -- -- 92
2020-07-11 00:00:00 18.9 31 Noroeste 45 Noroeste 0 -- -- 90
2020-07-10 23:00:00 19 31 Noroeste 45 Noroeste 0 -- -- 90
2020-07-10 22:00:00 19.2 28 Noroeste 44 Norte 0 -- -- 88
2020-07-10 21:00:00 19.6 27 Noroeste 47 Noroeste 0 -- -- 87
2020-07-10 20:00:00 20.3 29 Noroeste 45 Noroeste 0 -- -- 83
2020-07-10 19:00:00 21.4 31 Noroeste 50 Noroeste 0 -- -- 78
2020-07-10 18:00:00 22.4 27 Norte 49 Noroeste 0 -- -- 76
2020-07-10 17:00:00 22.9 30 Norte 48 Noroeste 0 -- -- 73
2020-07-10 16:00:00 23 32 Noroeste 47 Norte 0 -- -- 71
2020-07-10 15:00:00 23.3 31 Norte 50 Noroeste 0 -- -- 72
2020-07-10 14:00:00 24 24 Norte 45 Norte 0 -- -- 69
2020-07-10 13:00:00 23.6 30 Norte 44 Norte 0 -- -- 70
2020-07-10 12:00:00 23.2 24 Norte 44 Noroeste 0 -- -- 72
2020-07-10 11:00:00 21.2 24 Norte 38 Noroeste 0 -- -- 78
2020-07-10 10:00:00 20.2 25 Norte 38 Norte 0 -- -- 82
2020-07-10 09:00:00 19.7 20 Norte 37 Norte 0 -- -- 85
2020-07-10 08:00:00 19.1 19 Norte 37 Norte 0 -- -- 86
2020-07-10 07:00:00 18.8 20 Norte 36 Norte 0 -- -- 86
2020-07-10 06:00:00 18.6 23 Norte 41 Norte 0 -- -- 85
2020-07-10 05:00:00 18.7 25 Norte 38 Norte 0 -- -- 84
2020-07-10 04:00:00 18.9 22 Norte 36 Norte 0 -- -- 85
2020-07-10 03:00:00 19 21 Norte 34 Norte 0 -- -- 86
2020-07-10 02:00:00 18.9 22 Norte 38 Norte 0 -- -- 85
2020-07-10 01:00:00 19 21 Norte 42 Norte 0 -- -- 85
2020-07-10 00:00:00 19 20 Norte 43 Norte 0 -- -- 84
2020-07-09 23:00:00 19.2 23 Norte 44 Norte 0 -- -- 85
2020-07-09 22:00:00 19 35 Norte 49 Noroeste 0 -- -- 84
2020-07-09 21:00:00 19.4 30 Noroeste 45 Noroeste 0 -- -- 83
2020-07-09 20:00:00 19.8 33 Noroeste 45 Noroeste 0 -- -- 81
2020-07-09 19:00:00 20.4 26 Noroeste 50 Noroeste 0 -- -- 77
2020-07-09 18:00:00 21.5 33 Noroeste 50 Noroeste 0 -- -- 72
2020-07-09 17:00:00 22.6 28 Noroeste 45 Noroeste 0 -- -- 69
2020-07-09 16:00:00 24.5 21 Norte 43 Noroeste 0 -- -- 63
2020-07-09 15:00:00 23.9 25 Noroeste 43 Norte 0 -- -- 65
2020-07-09 14:00:00 23.5 26 Norte 42 Norte 0 -- -- 69
2020-07-09 13:00:00 22.6 27 Norte 43 Norte 0 -- -- 70
2020-07-09 12:00:00 22.8 31 Norte 48 Norte 0 -- -- 71
2020-07-09 11:00:00 21.9 31 Norte 46 Norte 0 -- -- 74
2020-07-09 10:00:00 20.5 32 Norte 45 Norte 0 -- -- 83
2020-07-09 09:00:00 19.2 32 Norte 46 Norte 0 -- -- 87
2020-07-09 08:00:00 18.7 24 Noroeste 37 Norte 0 -- -- 90
2020-07-09 07:00:00 18.5 23 Noroeste 33 Norte 0 -- -- 88
2020-07-09 06:00:00 18.7 22 Noroeste 32 Norte 0 -- -- 85
2020-07-09 05:00:00 19.1 21 Noroeste 30 Norte 0 -- -- 81
2020-07-09 04:00:00 19.3 14 Noroeste 30 Norte 0 -- -- 78
2020-07-09 03:00:00 19.5 18 Norte 31 Norte 0 -- -- 79
2020-07-09 02:00:00 19.3 24 Norte 37 Norte 0 -- -- 84
2020-07-09 01:00:00 20.4 22 Norte 32 Norte 0 -- -- 72
2020-07-09 00:00:00 21.7 15 Norte 36 Norte 0 -- -- 60
2020-07-08 23:00:00 23.1 21 Norte 33 Norte 0 -- -- 45
2020-07-08 22:00:00 23.2 10 Noroeste 24 Oeste 0 -- -- 50
2020-07-08 21:00:00 23.7 17 Noroeste 31 Oeste 0 -- -- 47
2020-07-08 20:00:00 26.4 13 Norte 40 Norte 0 -- -- 35
2020-07-08 19:00:00 27.4 23 Norte 37 Norte 0 -- -- 31
2020-07-08 18:00:00 27 15 Norte 30 Norte 0 -- -- 39
2020-07-08 17:00:00 27.2 18 Nordeste 35 Norte 0 -- -- 42
2020-07-08 16:00:00 26.7 21 Norte 48 Norte 0 -- -- 46
2020-07-08 15:00:00 27 19 Norte 45 Nordeste 0 -- -- 50
2020-07-08 14:00:00 29.2 18 Norte 33 Norte 0 -- -- 44
2020-07-08 13:00:00 28.7 11 Noroeste 29 Norte 0 -- -- 45
2020-07-08 12:00:00 29.2 19 Norte 31 Norte 0 -- -- 36
2020-07-08 11:00:00 28.8 19 Norte 38 Norte 0 -- -- 37
2020-07-08 10:00:00 28.7 21 Norte 41 Norte 0 -- -- 34
2020-07-08 09:00:00 27.4 26 Norte 37 Norte 0 -- -- 37
2020-07-08 08:00:00 24.5 28 Noroeste 36 Noroeste 0 -- -- 54
2020-07-08 07:00:00 25.5 13 Noroeste 25 Noroeste 0 -- -- 42
2020-07-08 06:00:00 25.9 5 Noroeste 39 Norte 0 -- -- 38
2020-07-08 05:00:00 24.3 20 Norte 41 Norte 0 -- -- 49
2020-07-08 04:00:00 24.6 17 Norte 32 Norte 0 -- -- 54
2020-07-08 03:00:00 26.6 21 Noroeste 40 Oeste 0 -- -- 39
2020-07-08 02:00:00 26.4 16 Noroeste 34 Oeste 0 -- -- 43
2020-07-08 01:00:00 26.8 17 Oeste 39 Oeste 0 -- -- 42
2020-07-08 00:00:00 27.5 24 Oeste 43 Oeste 0 -- -- 41